Time;durP1;ratioP1;P1;durP2;ratioP2;P2;SDS_P1;SDS_P2;PMS_P1;PMS_P2;Temp;Humidity;BMP_temperature;BMP_pressure;BME280_temperature;BME280_humidity;BME280_pressure;Samples;Min_cycle;Max_cycle;Signal;HPM_P1;HPM_P2
2022/04/11 00:02:06;;;;;;;4.75;3.78;;;;;;;;;;7375482;19;20139;-78
2022/04/11 00:04:36;;;;;;;6.47;4.65;;;;;;;;;;7376452;19;20239;-79
2022/04/11 00:07:05;;;;;;;4.63;4.15;;;;;;;;;;7380875;19;20135;-78
2022/04/11 00:09:42;;;;;;;5.88;4.70;;;;;;;;;;7380492;19;20588;-73
2022/04/11 00:12:15;;;;;;;5.03;4.60;;;;;;;;;;7371607;19;20234;-74
2022/04/11 00:14:44;;;;;;;5.78;4.53;;;;;;;;;;7375529;19;20148;-73
2022/04/11 00:17:16;;;;;;;5.38;4.70;;;;;;;;;;7373293;19;20165;-74
2022/04/11 00:19:46;;;;;;;9.75;4.50;;;;;;;;;;7377431;19;20215;-73
2022/04/11 00:22:18;;;;;;;5.00;4.50;;;;;;;;;;7376613;19;20144;-74
2022/04/11 00:24:52;;;;;;;5.05;4.63;;;;;;;;;;7376646;19;20146;-74
2022/04/11 00:27:24;;;;;;;5.28;4.43;;;;;;;;;;7371900;19;20143;-74
2022/04/11 00:29:54;;;;;;;9.57;5.68;;;;;;;;;;7373877;19;20155;-74
2022/04/11 00:32:23;;;;;;;5.30;4.68;;;;;;;;;;7375916;19;20228;-73
2022/04/11 00:34:55;;;;;;;5.45;4.75;;;;;;;;;;7377728;19;20132;-74
2022/04/11 00:37:27;;;;;;;5.13;4.63;;;;;;;;;;7372270;19;20151;-74
2022/04/11 00:40:01;;;;;;;6.10;4.70;;;;;;;;;;7374353;19;20148;-74
2022/04/11 00:42:34;;;;;;;6.63;4.95;;;;;;;;;;7359937;19;20139;-74
2022/04/11 00:45:03;;;;;;;5.25;4.75;;;;;;;;;;7370834;19;20139;-74
2022/04/11 00:47:33;;;;;;;6.63;5.15;;;;;;;;;;7376592;19;20592;-74
2022/04/11 00:50:04;;;;;;;6.00;5.40;;;;;;;;;;7371538;19;20143;-74
2022/04/11 00:52:38;;;;;;;6.95;4.93;;;;;;;;;;7377120;19;20132;-74
2022/04/11 00:55:11;;;;;;;6.10;4.90;;;;;;;;;;7376586;19;20174;-74
2022/04/11 00:57:43;;;;;;;5.63;4.75;;;;;;;;;;7372235;19;20150;-74
2022/04/11 01:00:15;;;;;;;7.18;4.93;;;;;;;;;;7374571;19;20144;-74
2022/04/11 01:02:47;;;;;;;6.00;4.85;;;;;;;;;;7373953;19;20714;-75
2022/04/11 01:05:19;;;;;;;6.53;4.90;;;;;;;;;;7374152;19;20148;-74
2022/04/11 01:07:51;;;;;;;6.97;6.28;;;;;;;;;;7375221;19;20163;-73
2022/04/11 01:10:26;;;;;;;5.93;5.20;;;;;;;;;;7374496;19;20136;-77
2022/04/11 01:12:56;;;;;;;7.10;5.88;;;;;;;;;;7375602;19;20158;-77
2022/04/11 01:15:30;;;;;;;6.75;5.32;;;;;;;;;;7368804;19;20150;-77
2022/04/11 01:18:02;;;;;;;6.97;5.55;;;;;;;;;;7376146;19;20134;-78
2022/04/11 01:20:32;;;;;;;8.80;5.60;;;;;;;;;;7376039;19;20142;-77
2022/04/11 01:23:06;;;;;;;6.80;5.10;;;;;;;;;;7373898;19;20150;-77
2022/04/11 01:25:39;;;;;;;9.82;6.03;;;;;;;;;;7372899;19;20139;-77
2022/04/11 01:28:11;;;;;;;8.05;5.63;;;;;;;;;;7375454;19;20142;-76
2022/04/11 01:30:42;;;;;;;7.65;5.10;;;;;;;;;;7368077;19;20193;-77
2022/04/11 01:33:17;;;;;;;5.88;5.28;;;;;;;;;;7374898;19;20768;-77
2022/04/11 01:35:47;;;;;;;8.27;6.25;;;;;;;;;;7374411;19;20161;-77
2022/04/11 01:38:21;;;;;;;7.93;6.53;;;;;;;;;;7374422;19;20185;-77
2022/04/11 01:40:51;;;;;;;8.05;5.70;;;;;;;;;;7373011;19;20600;-74
2022/04/11 01:43:21;;;;;;;10.18;5.82;;;;;;;;;;7375471;19;20612;-73
2022/04/11 01:45:54;;;;;;;9.65;6.22;;;;;;;;;;7368812;19;20515;-73
2022/04/11 01:48:58;;;;;;;5.53;5.03;;;;;;;;;;7373603;19;20174;-73
2022/04/11 01:51:27;;;;;;;5.75;5.25;;;;;;;;;;7374233;19;20161;-73
2022/04/11 01:54:00;;;;;;;8.95;6.05;;;;;;;;;;7370729;19;20131;-73
2022/04/11 01:56:32;;;;;;;7.57;6.00;;;;;;;;;;7371702;19;20156;-73
2022/04/11 01:59:02;;;;;;;6.75;5.95;;;;;;;;;;7373980;19;20162;-73
2022/04/11 02:01:34;;;;;;;8.45;5.65;;;;;;;;;;7366910;19;20839;-74
2022/04/11 02:04:09;;;;;;;9.45;5.68;;;;;;;;;;7370946;19;20170;-74
2022/04/11 02:06:39;;;;;;;6.72;6.00;;;;;;;;;;7372681;19;20136;-73
2022/04/11 02:09:13;;;;;;;10.75;5.60;;;;;;;;;;7370831;19;20143;-73
2022/04/11 02:11:48;;;;;;;8.70;5.80;;;;;;;;;;7370238;19;20155;-74
2022/04/11 02:14:21;;;;;;;7.85;5.30;;;;;;;;;;7369397;19;20168;-73
2022/04/11 02:16:50;;;;;;;6.60;5.93;;;;;;;;;;7372117;19;20150;-73
2022/04/11 02:19:22;;;;;;;11.30;6.00;;;;;;;;;;7372555;19;20195;-73
2022/04/11 02:21:52;;;;;;;7.20;5.22;;;;;;;;;;7373258;19;20560;-73
2022/04/11 02:24:26;;;;;;;8.65;5.65;;;;;;;;;;7368473;19;20242;-73
2022/04/11 02:26:58;;;;;;;8.73;6.57;;;;;;;;;;7372541;19;20596;-73
2022/04/11 02:29:29;;;;;;;6.95;5.80;;;;;;;;;;7372166;19;20159;-72
2022/04/11 02:32:03;;;;;;;6.18;5.57;;;;;;;;;;7371085;19;20517;-73
2022/04/11 02:34:35;;;;;;;7.65;5.45;;;;;;;;;;7375802;19;20146;-73
2022/04/11 02:37:05;;;;;;;7.30;5.53;;;;;;;;;;7370258;19;20637;-73
2022/04/11 02:39:42;;;;;;;6.72;6.13;;;;;;;;;;7371966;19;20181;-73
2022/04/11 02:42:12;;;;;;;5.93;5.32;;;;;;;;;;7373858;19;20143;-73
2022/04/11 02:44:42;;;;;;;6.10;5.50;;;;;;;;;;7368382;19;20147;-74
2022/04/11 02:47:14;;;;;;;8.02;5.90;;;;;;;;;;7372999;19;20846;-73
2022/04/11 02:49:43;;;;;;;11.23;7.95;;;;;;;;;;7373478;19;20165;-73
2022/04/11 02:52:28;;;;;;;8.63;7.28;;;;;;;;;;7373212;19;20170;-73
2022/04/11 02:55:21;;;;;;;7.88;6.07;;;;;;;;;;7369836;19;20140;-73
2022/04/11 02:57:51;;;;;;;8.75;6.05;;;;;;;;;;7369981;19;20147;-73
2022/04/11 03:00:21;;;;;;;10.35;6.53;;;;;;;;;;7369414;19;20283;-73
2022/04/11 03:03:00;;;;;;;8.25;6.95;;;;;;;;;;7371891;19;20159;-73
2022/04/11 03:05:34;;;;;;;7.30;5.63;;;;;;;;;;7370168;19;20148;-73
2022/04/11 03:08:06;;;;;;;6.03;5.50;;;;;;;;;;7367202;19;20127;-73
2022/04/11 03:10:41;;;;;;;6.72;6.03;;;;;;;;;;7371793;19;20136;-73
2022/04/11 03:13:13;;;;;;;13.43;6.43;;;;;;;;;;7370545;19;20138;-73
2022/04/11 03:15:44;;;;;;;7.18;6.30;;;;;;;;;;7368552;19;20148;-74
2022/04/11 03:18:16;;;;;;;7.05;4.90;;;;;;;;;;7368011;19;20155;-74
2022/04/11 03:20:47;;;;;;;6.75;5.10;;;;;;;;;;7372932;19;20144;-72
2022/04/11 03:23:18;;;;;;;7.93;5.90;;;;;;;;;;7368846;19;20279;-73
2022/04/11 03:25:56;;;;;;;6.03;5.28;;;;;;;;;;7378936;19;20165;-73
2022/04/11 03:28:30;;;;;;;7.72;6.22;;;;;;;;;;7377351;19;20150;-74
2022/04/11 03:30:59;;;;;;;7.53;6.35;;;;;;;;;;7372834;19;20163;-74
2022/04/11 03:33:32;;;;;;;6.95;5.63;;;;;;;;;;7375454;19;20151;-74
2022/04/11 03:36:07;;;;;;;8.32;7.38;;;;;;;;;;7379539;19;20141;-73
2022/04/11 03:38:37;;;;;;;7.72;5.97;;;;;;;;;;7375179;19;20139;-73
2022/04/11 03:41:13;;;;;;;5.85;5.35;;;;;;;;;;7375241;19;20537;-73
2022/04/11 03:43:43;;;;;;;7.88;5.95;;;;;;;;;;7379091;19;20148;-74
2022/04/11 03:46:22;;;;;;;6.10;5.50;;;;;;;;;;7372785;19;20150;-73
2022/04/11 03:48:57;;;;;;;8.82;6.65;;;;;;;;;;7378533;19;20166;-73
2022/04/11 03:51:26;;;;;;;11.82;6.88;;;;;;;;;;7378457;19;20131;-73
2022/04/11 03:53:56;;;;;;;9.38;6.22;;;;;;;;;;7377574;19;20195;-73
2022/04/11 03:56:31;;;;;;;9.80;5.55;;;;;;;;;;7377882;19;20131;-73
2022/04/11 03:59:03;;;;;;;7.85;5.75;;;;;;;;;;7374551;19;20127;-74
2022/04/11 04:01:35;;;;;;;8.50;6.45;;;;;;;;;;7375196;19;20138;-74
2022/04/11 04:04:07;;;;;;;8.70;6.10;;;;;;;;;;7373968;19;20148;-74
2022/04/11 04:06:40;;;;;;;9.98;6.05;;;;;;;;;;7374863;19;20155;-74
2022/04/11 04:09:15;;;;;;;7.80;6.05;;;;;;;;;;7375848;19;20334;-74
2022/04/11 04:11:47;;;;;;;9.02;6.57;;;;;;;;;;7371089;19;20853;-74
2022/04/11 04:14:39;;;;;;;10.98;6.90;;;;;;;;;;7371235;19;20231;-74
2022/04/11 04:17:13;;;;;;;6.85;5.97;;;;;;;;;;7368755;19;20624;-75
2022/04/11 04:19:53;;;;;;;8.18;6.15;;;;;;;;;;7375974;19;20142;-75
2022/04/11 04:22:26;;;;;;;6.47;5.10;;;;;;;;;;7380441;19;20127;-74
2022/04/11 04:25:01;;;;;;;9.02;5.88;;;;;;;;;;7378611;19;20228;-75
2022/04/11 04:27:37;;;;;;;6.40;5.57;;;;;;;;;;7378320;19;20758;-75
2022/04/11 04:30:09;;;;;;;8.00;6.03;;;;;;;;;;7372786;19;20158;-75
2022/04/11 04:32:41;;;;;;;5.50;4.80;;;;;;;;;;7374021;19;20135;-74
2022/04/11 04:35:13;;;;;;;5.65;5.10;;;;;;;;;;7367394;19;20139;-76
2022/04/11 04:37:46;;;;;;;7.85;5.97;;;;;;;;;;7372682;19;20244;-78
2022/04/11 04:40:15;;;;;;;6.30;5.10;;;;;;;;;;7377950;19;20171;-74
2022/04/11 04:42:54;;;;;;;6.32;5.57;;;;;;;;;;7373178;19;20155;-73
2022/04/11 04:45:25;;;;;;;11.45;6.00;;;;;;;;;;7373143;19;21049;-74
2022/04/11 04:48:10;;;;;;;9.23;6.68;;;;;;;;;;7370985;19;20155;-75
2022/04/11 04:50:41;;;;;;;9.52;6.07;;;;;;;;;;7386455;19;20146;-80
2022/04/11 04:53:17;;;;;;;8.63;6.47;;;;;;;;;;7365315;19;20146;-78
2022/04/11 04:55:49;;;;;;;9.38;7.32;;;;;;;;;;7374666;19;20151;-77
2022/04/11 04:58:21;;;;;;;10.45;6.95;;;;;;;;;;7381149;19;20141;-77
2022/04/11 05:00:52;;;;;;;8.00;5.93;;;;;;;;;;7386660;19;21088;-78
2022/04/11 05:03:24;;;;;;;12.50;7.07;;;;;;;;;;7382697;19;20163;-79
2022/04/11 05:05:57;;;;;;;9.30;7.15;;;;;;;;;;7379888;19;20240;-78
2022/04/11 05:08:27;;;;;;;12.48;7.82;;;;;;;;;;7378676;19;20199;-78
2022/04/11 05:10:56;;;;;;;12.27;6.70;;;;;;;;;;7374947;19;20228;-77
2022/04/11 05:13:29;;;;;;;9.48;6.88;;;;;;;;;;7392584;19;20142;-78
2022/04/11 05:15:59;;;;;;;8.07;6.18;;;;;;;;;;7377802;19;20207;-77
2022/04/11 05:18:33;;;;;;;9.05;5.82;;;;;;;;;;7382296;19;20156;-77
2022/04/11 05:21:23;;;;;;;7.60;5.80;;;;;;;;;;7382494;19;20163;-77
2022/04/11 05:23:53;;;;;;;9.35;6.03;;;;;;;;;;7382655;19;20139;-77
2022/04/11 05:26:26;;;;;;;14.50;6.55;;;;;;;;;;7380421;19;20136;-77
2022/04/11 05:28:58;;;;;;;8.57;6.05;;;;;;;;;;7384405;19;20611;-77
2022/04/11 05:31:28;;;;;;;10.25;5.63;;;;;;;;;;7381965;19;20164;-78
2022/04/11 05:33:59;;;;;;;10.48;7.97;;;;;;;;;;7384475;19;20173;-77
2022/04/11 05:36:28;;;;;;;10.35;5.85;;;;;;;;;;7385052;19;20135;-77
2022/04/11 05:38:59;;;;;;;5.55;4.82;;;;;;;;;;7383915;19;20155;-77
2022/04/11 05:41:32;;;;;;;9.32;7.72;;;;;;;;;;7382857;19;20123;-77
2022/04/11 05:44:08;;;;;;;8.98;6.63;;;;;;;;;;7383128;19;20142;-77
2022/04/11 05:46:45;;;;;;;9.88;6.20;;;;;;;;;;7376283;19;20154;-77
2022/04/11 05:49:21;;;;;;;6.75;6.05;;;;;;;;;;7378730;19;20181;-77
2022/04/11 05:51:53;;;;;;;9.55;5.60;;;;;;;;;;7378148;19;20626;-77
2022/04/11 05:54:25;;;;;;;12.32;6.60;;;;;;;;;;7377506;19;20760;-77
2022/04/11 05:56:55;;;;;;;9.02;7.60;;;;;;;;;;7378474;19;20182;-76
2022/04/11 05:59:47;;;;;;;11.48;6.75;;;;;;;;;;7377048;19;20876;-76
2022/04/11 06:02:22;;;;;;;13.13;7.93;;;;;;;;;;7375742;19;20184;-76
2022/04/11 06:04:52;;;;;;;10.90;8.02;;;;;;;;;;7374450;19;20724;-77
2022/04/11 06:07:26;;;;;;;14.52;8.20;;;;;;;;;;7376384;19;20996;-76
2022/04/11 06:09:59;;;;;;;11.30;7.32;;;;;;;;;;7378295;19;20270;-77
2022/04/11 06:12:29;;;;;;;14.55;7.57;;;;;;;;;;7375495;19;20132;-77
2022/04/11 06:15:05;;;;;;;9.75;7.88;;;;;;;;;;7377576;19;20219;-78
2022/04/11 06:17:35;;;;;;;9.90;7.30;;;;;;;;;;7376654;19;20147;-77
2022/04/11 06:20:08;;;;;;;9.57;8.00;;;;;;;;;;7376332;19;20158;-77
2022/04/11 06:22:40;;;;;;;9.43;7.72;;;;;;;;;;7375574;19;20620;-77
2022/04/11 06:25:12;;;;;;;14.05;8.13;;;;;;;;;;7374377;19;20143;-77
2022/04/11 06:27:42;;;;;;;15.50;7.45;;;;;;;;;;7375174;19;20954;-77
2022/04/11 06:30:19;;;;;;;9.73;8.32;;;;;;;;;;7374397;19;20512;-76
2022/04/11 06:32:51;;;;;;;9.50;7.40;;;;;;;;;;7375960;19;20556;-77
2022/04/11 06:35:21;;;;;;;10.95;7.88;;;;;;;;;;7375301;19;20136;-77
2022/04/11 06:37:52;;;;;;;10.10;8.00;;;;;;;;;;7378234;19;20156;-77
2022/04/11 06:40:24;;;;;;;10.00;8.23;;;;;;;;;;7372625;19;20158;-77
2022/04/11 06:42:54;;;;;;;11.88;9.27;;;;;;;;;;7372772;19;20147;-77
2022/04/11 06:45:48;;;;;;;14.52;8.93;;;;;;;;;;7373199;19;20712;-77
2022/04/11 06:48:25;;;;;;;10.85;7.35;;;;;;;;;;7374351;19;20151;-77
2022/04/11 06:50:55;;;;;;;10.77;7.20;;;;;;;;;;7375167;19;20143;-77
2022/04/11 06:53:29;;;;;;;7.95;5.90;;;;;;;;;;7374755;19;20150;-77
2022/04/11 06:56:01;;;;;;;9.90;6.95;;;;;;;;;;7372853;19;20146;-77
2022/04/11 06:58:31;;;;;;;7.72;6.90;;;;;;;;;;7375685;19;20234;-77
2022/04/11 07:01:05;;;;;;;9.43;6.30;;;;;;;;;;7375847;19;20177;-77
2022/04/11 07:03:34;;;;;;;9.25;6.95;;;;;;;;;;7368271;19;20580;-77
2022/04/11 07:06:04;;;;;;;8.52;7.70;;;;;;;;;;7375861;19;20604;-77
2022/04/11 07:08:36;;;;;;;12.57;7.55;;;;;;;;;;7374519;19;20169;-77
2022/04/11 07:11:08;;;;;;;12.50;8.25;;;;;;;;;;7376106;19;20143;-78
2022/04/11 07:13:42;;;;;;;7.67;6.40;;;;;;;;;;7375452;19;20615;-77
2022/04/11 07:16:16;;;;;;;8.83;6.50;;;;;;;;;;7375143;19;20391;-77
2022/04/11 07:18:48;;;;;;;12.17;8.47;;;;;;;;;;7373415;19;20408;-77
2022/04/11 07:21:21;;;;;;;6.43;4.70;;;;;;;;;;7375453;19;20435;-77
2022/04/11 07:23:53;;;;;;;4.77;3.90;;;;;;;;;;7372875;19;21007;-77
2022/04/11 07:26:22;;;;;;;5.03;4.40;;;;;;;;;;7372185;19;20372;-78
2022/04/11 07:28:52;;;;;;;4.80;3.53;;;;;;;;;;7374628;19;20476;-78
2022/04/11 07:31:32;;;;;;;8.00;4.50;;;;;;;;;;7368720;19;20553;-77
2022/04/11 07:34:04;;;;;;;5.30;4.13;;;;;;;;;;7376080;19;20512;-77
2022/04/11 07:36:36;;;;;;;7.40;3.63;;;;;;;;;;7373435;19;20433;-77
2022/04/11 07:39:05;;;;;;;4.20;3.30;;;;;;;;;;7374776;19;20533;-77
2022/04/11 07:41:37;;;;;;;6.07;4.10;;;;;;;;;;7371491;19;21098;-78
2022/04/11 07:44:07;;;;;;;4.30;3.90;;;;;;;;;;7371994;19;20428;-77
2022/04/11 07:46:44;;;;;;;4.80;3.50;;;;;;;;;;7374422;19;21090;-77
2022/04/11 07:49:14;;;;;;;5.80;3.70;;;;;;;;;;7373295;19;20468;-78
2022/04/11 07:51:43;;;;;;;4.50;4.10;;;;;;;;;;7374311;19;20428;-77
2022/04/11 07:54:13;;;;;;;4.37;3.60;;;;;;;;;;7375361;19;20412;-78
2022/04/11 07:56:45;;;;;;;4.10;3.70;;;;;;;;;;7373902;19;20442;-77
2022/04/11 07:59:23;;;;;;;6.40;3.73;;;;;;;;;;7375806;19;20421;-77
2022/04/11 08:01:58;;;;;;;3.80;3.50;;;;;;;;;;7373463;19;20449;-77
2022/04/11 08:04:27;;;;;;;6.47;4.10;;;;;;;;;;7371867;19;20719;-77
2022/04/11 08:06:59;;;;;;;4.40;3.90;;;;;;;;;;7373581;19;20376;-78
2022/04/11 08:09:29;;;;;;;3.77;3.40;;;;;;;;;;7373557;19;20460;-78
2022/04/11 08:12:04;;;;;;;5.13;3.90;;;;;;;;;;7378382;19;20411;-78
2022/04/11 08:14:34;;;;;;;6.20;4.67;;;;;;;;;;7380392;19;20944;-78
2022/04/11 08:17:07;;;;;;;4.27;3.80;;;;;;;;;;7380407;19;20403;-79
2022/04/11 08:19:41;;;;;;;4.60;3.50;;;;;;;;;;7380313;19;20414;-77
2022/04/11 08:22:13;;;;;;;5.73;4.00;;;;;;;;;;7381004;19;20414;-78
2022/04/11 08:24:43;;;;;;;4.77;4.27;;;;;;;;;;7377529;19;20384;-77
2022/04/11 08:27:12;;;;;;;5.00;3.93;;;;;;;;;;7377864;19;20384;-78
2022/04/11 08:29:43;;;;;;;5.97;4.37;;;;;;;;;;7377605;19;20404;-78
2022/04/11 08:32:17;;;;;;;6.80;3.60;;;;;;;;;;7379638;19;20423;-78
2022/04/11 08:34:49;;;;;;;7.10;3.73;;;;;;;;;;7379239;19;20419;-78
2022/04/11 08:37:24;;;;;;;8.90;3.43;;;;;;;;;;7380048;19;20395;-78
2022/04/11 08:39:53;;;;;;;4.17;3.77;;;;;;;;;;7382276;19;20381;-78
2022/04/11 08:42:25;;;;;;;5.43;2.97;;;;;;;;;;7378682;19;20404;-78
2022/04/11 08:44:59;;;;;;;3.57;3.03;;;;;;;;;;7381006;19;20732;-78
2022/04/11 08:47:34;;;;;;;4.07;3.10;;;;;;;;;;7378643;19;20416;-78
2022/04/11 08:50:06;;;;;;;3.80;3.23;;;;;;;;;;7378713;19;20406;-79
2022/04/11 08:52:37;;;;;;;3.53;3.23;;;;;;;;;;7376957;19;20517;-79
2022/04/11 08:55:10;;;;;;;6.13;3.70;;;;;;;;;;7378918;19;20412;-77
2022/04/11 08:57:42;;;;;;;3.40;3.10;;;;;;;;;;7381506;19;20443;-79
2022/04/11 09:00:15;;;;;;;3.60;3.00;;;;;;;;;;7378162;19;20383;-77
2022/04/11 09:02:48;;;;;;;4.40;3.43;;;;;;;;;;7377605;19;20391;-77
2022/04/11 09:05:22;;;;;;;3.50;2.73;;;;;;;;;;7380581;19;20424;-77
2022/04/11 09:07:52;;;;;;;5.40;3.03;;;;;;;;;;7374228;19;20392;-77
2022/04/11 09:10:23;;;;;;;3.20;2.70;;;;;;;;;;7379907;19;20418;-78
2022/04/11 09:12:53;;;;;;;4.20;2.87;;;;;;;;;;7377875;19;20400;-79
2022/04/11 09:15:26;;;;;;;3.87;3.50;;;;;;;;;;7378659;19;20865;-79
2022/04/11 09:18:00;;;;;;;3.43;3.13;;;;;;;;;;7378308;19;20767;-78
2022/04/11 09:20:34;;;;;;;3.20;2.87;;;;;;;;;;7378252;19;21001;-80
2022/04/11 09:23:19;;;;;;;3.37;2.73;;;;;;;;;;7377524;19;20513;-77
2022/04/11 09:25:49;;;;;;;3.43;2.60;;;;;;;;;;7379368;19;20379;-78
2022/04/11 09:28:23;;;;;;;3.10;2.77;;;;;;;;;;7377435;19;20422;-77
2022/04/11 09:30:53;;;;;;;3.10;2.40;;;;;;;;;;7377294;19;20923;-79
2022/04/11 09:33:26;;;;;;;4.87;2.40;;;;;;;;;;7378458;19;20372;-79
2022/04/11 09:35:55;;;;;;;2.40;2.20;;;;;;;;;;7378643;19;20408;-79
2022/04/11 09:38:29;;;;;;;3.10;2.40;;;;;;;;;;7383850;19;20761;-79
2022/04/11 09:41:01;;;;;;;4.70;2.40;;;;;;;;;;7404078;19;20402;-78
2022/04/11 09:43:34;;;;;;;2.70;2.33;;;;;;;;;;7405313;19;20396;-78
2022/04/11 09:46:05;;;;;;;3.13;2.30;;;;;;;;;;7407682;19;20902;-78
2022/04/11 09:48:38;;;;;;;2.77;2.17;;;;;;;;;;7405729;19;20392;-78
2022/04/11 09:51:13;;;;;;;2.37;2.07;;;;;;;;;;7407803;19;20408;-79
2022/04/11 09:53:46;;;;;;;3.43;1.93;;;;;;;;;;7408268;19;20400;-78
2022/04/11 09:56:19;;;;;;;2.80;2.60;;;;;;;;;;7409168;19;20409;-78
2022/04/11 09:58:50;;;;;;;2.83;2.50;;;;;;;;;;7412583;19;20393;-78
2022/04/11 10:01:22;;;;;;;3.03;2.10;;;;;;;;;;7413907;19;20409;-79
2022/04/11 10:03:54;;;;;;;3.07;2.00;;;;;;;;;;7414281;19;20420;-79
2022/04/11 10:07:02;;;;;;;3.10;2.30;;;;;;;;;;7413438;19;20468;-78
2022/04/11 10:09:36;;;;;;;3.40;2.57;;;;;;;;;;7407967;19;20390;-78
2022/04/11 10:12:11;;;;;;;3.80;2.70;;;;;;;;;;7381171;19;20438;-78
2022/04/11 10:14:45;;;;;;;2.83;1.83;;;;;;;;;;7381143;19;21222;-79
2022/04/11 10:17:17;;;;;;;3.50;2.00;;;;;;;;;;7373567;19;20431;-78
2022/04/11 10:19:49;;;;;;;2.30;2.10;;;;;;;;;;7370372;19;20405;-79
2022/04/11 10:22:21;;;;;;;2.30;1.97;;;;;;;;;;7372121;19;21101;-79
2022/04/11 10:25:00;;;;;;;2.83;1.73;;;;;;;;;;7373584;19;20818;-79
2022/04/11 10:27:32;;;;;;;3.57;2.20;;;;;;;;;;7372708;19;20412;-79
2022/04/11 10:30:04;;;;;;;3.07;2.10;;;;;;;;;;7372969;19;21041;-79
2022/04/11 10:32:35;;;;;;;2.23;1.97;;;;;;;;;;7372251;19;20446;-79
2022/04/11 10:35:11;;;;;;;2.30;1.70;;;;;;;;;;7372518;19;21225;-79
2022/04/11 10:37:55;;;;;;;3.50;2.07;;;;;;;;;;7374095;19;21270;-79
2022/04/11 10:40:34;;;;;;;2.17;1.80;;;;;;;;;;7377421;19;20415;-83
2022/04/11 10:43:16;;;;;;;2.43;1.90;;;;;;;;;;7377347;19;20424;-83
2022/04/11 10:45:58;;;;;;;1.60;1.40;;;;;;;;;;7398273;19;20433;-83
2022/04/11 10:48:42;;;;;;;2.37;2.10;;;;;;;;;;7379793;19;20504;-83
2022/04/11 10:51:20;;;;;;;2.80;2.07;;;;;;;;;;7377872;19;20459;-84
2022/04/11 10:54:04;;;;;;;2.90;2.20;;;;;;;;;;7378386;19;20496;-83
2022/04/11 10:56:53;;;;;;;1.83;1.73;;;;;;;;;;7379732;19;20397;-83
2022/04/11 10:59:31;;;;;;;2.53;2.00;;;;;;;;;;7378602;19;20440;-83
2022/04/11 11:02:01;;;;;;;2.83;2.10;;;;;;;;;;7377371;19;20408;-84
2022/04/11 11:04:33;;;;;;;3.50;3.00;;;;;;;;;;7379638;19;20417;-84
2022/04/11 11:07:32;;;;;;;2.63;2.30;;;;;;;;;;7374440;19;20416;-84
2022/04/11 11:10:03;;;;;;;1.87;1.60;;;;;;;;;;7374632;19;21168;-79
2022/04/11 11:12:34;;;;;;;2.30;1.83;;;;;;;;;;7369385;19;20412;-79
2022/04/11 11:15:19;;;;;;;2.80;2.00;;;;;;;;;;7373921;19;20400;-80
2022/04/11 11:17:57;;;;;;;3.63;2.10;;;;;;;;;;7376432;19;20406;-77
2022/04/11 11:20:27;;;;;;;8.60;2.03;;;;;;;;;;7375638;19;20408;-77
2022/04/11 11:23:19;;;;;;;1.97;1.60;;;;;;;;;;7374185;19;20428;-80
2022/04/11 11:25:50;;;;;;;2.10;1.90;;;;;;;;;;7374005;19;20412;-78
2022/04/11 11:28:19;;;;;;;3.20;2.23;;;;;;;;;;7373452;19;20475;-78
2022/04/11 11:30:51;;;;;;;2.60;2.07;;;;;;;;;;7374210;19;20421;-78
2022/04/11 11:33:23;;;;;;;2.20;1.87;;;;;;;;;;7373436;19;20827;-78
2022/04/11 11:35:53;;;;;;;2.13;1.90;;;;;;;;;;7374492;19;21734;-78
2022/04/11 11:38:29;;;;;;;2.23;2.03;;;;;;;;;;7372407;19;20391;-78
2022/04/11 11:41:02;;;;;;;1.87;1.73;;;;;;;;;;7375101;19;20407;-83
2022/04/11 11:43:32;;;;;;;3.03;2.33;;;;;;;;;;7375121;19;20372;-83
2022/04/11 11:46:02;;;;;;;2.40;1.80;;;;;;;;;;7379013;19;20404;-83
2022/04/11 11:48:35;;;;;;;3.43;1.93;;;;;;;;;;7381014;19;20524;-82
2022/04/11 11:51:06;;;;;;;2.60;1.70;;;;;;;;;;7381849;19;20403;-82
2022/04/11 11:53:50;;;;;;;2.00;1.80;;;;;;;;;;7381806;19;20481;-83
2022/04/11 11:56:20;;;;;;;2.30;2.10;;;;;;;;;;7384860;19;20400;-83
2022/04/11 11:58:55;;;;;;;2.33;2.13;;;;;;;;;;7382896;19;20414;-83
2022/04/11 12:01:24;;;;;;;2.47;2.10;;;;;;;;;;7381943;19;20400;-83
2022/04/11 12:06:43;;;;;;;1.97;1.87;;;;;;;;;;7383257;19;20732;-82
2022/04/11 12:09:19;;;;;;;4.70;2.00;;;;;;;;;;7380931;19;20749;-83
2022/04/11 12:11:52;;;;;;;2.40;1.80;;;;;;;;;;7381127;19;20921;-78
2022/04/11 12:14:24;;;;;;;2.47;1.67;;;;;;;;;;7379222;19;21357;-78
2022/04/11 12:17:14;;;;;;;2.40;1.77;;;;;;;;;;7381771;19;20441;-78
2022/04/11 12:19:46;;;;;;;7.00;2.10;;;;;;;;;;7380597;19;20441;-78
2022/04/11 12:22:18;;;;;;;2.23;2.03;;;;;;;;;;7381774;19;20426;-78
2022/04/11 12:24:50;;;;;;;2.87;1.83;;;;;;;;;;7381333;19;21219;-77
2022/04/11 12:27:24;;;;;;;3.13;2.10;;;;;;;;;;7383126;19;20412;-79
2022/04/11 12:29:54;;;;;;;6.00;2.17;;;;;;;;;;7372226;19;20427;-78
2022/04/11 12:32:26;;;;;;;2.53;2.00;;;;;;;;;;7380224;19;20419;-78
2022/04/11 12:34:58;;;;;;;3.50;2.00;;;;;;;;;;7381837;19;20399;-79
2022/04/11 12:37:27;;;;;;;2.33;2.13;;;;;;;;;;7381675;19;20433;-78
2022/04/11 12:40:04;;;;;;;2.60;2.23;;;;;;;;;;7381122;19;20404;-78
2022/04/11 12:42:36;;;;;;;2.03;1.83;;;;;;;;;;7406769;19;20388;-78
2022/04/11 12:45:11;;;;;;;3.27;2.00;;;;;;;;;;7408673;19;20387;-78
2022/04/11 12:47:58;;;;;;;2.17;1.97;;;;;;;;;;7405026;19;20407;-78
2022/04/11 12:50:30;;;;;;;3.80;2.80;;;;;;;;;;7409793;19;20407;-78
2022/04/11 12:52:59;;;;;;;3.60;2.50;;;;;;;;;;7403516;19;20423;-79
2022/04/11 12:55:35;;;;;;;3.17;2.33;;;;;;;;;;7410915;19;21423;-78
2022/04/11 12:58:08;;;;;;;3.17;2.30;;;;;;;;;;7412270;19;20720;-79
2022/04/11 13:00:39;;;;;;;2.93;2.03;;;;;;;;;;7414787;19;20420;-79
2022/04/11 13:03:11;;;;;;;2.87;2.33;;;;;;;;;;7413678;19;20408;-78
2022/04/11 13:05:45;;;;;;;4.87;2.50;;;;;;;;;;7399332;19;20407;-79
2022/04/11 13:08:17;;;;;;;3.13;2.50;;;;;;;;;;7390373;19;20436;-80
2022/04/11 13:10:51;;;;;;;3.03;2.43;;;;;;;;;;7388586;19;20438;-84
2022/04/11 13:13:21;;;;;;;3.00;2.30;;;;;;;;;;7387351;19;20420;-84
2022/04/11 13:19:00;;;;;;;2.63;2.40;;;;;;;;;;7360024;19;20461;-83
2022/04/11 13:21:30;;;;;;;2.67;2.20;;;;;;;;;;7386490;19;20384;-83
2022/04/11 13:24:04;;;;;;;3.60;2.37;;;;;;;;;;7384361;19;20430;-83
2022/04/11 13:26:42;;;;;;;2.60;2.40;;;;;;;;;;7383961;19;20422;-83
2022/04/11 13:29:16;;;;;;;2.60;2.40;;;;;;;;;;7381394;19;20437;-83
2022/04/11 13:31:48;;;;;;;3.00;2.70;;;;;;;;;;7383141;19;20442;-83
2022/04/11 13:34:18;;;;;;;3.27;2.73;;;;;;;;;;7379424;19;20409;-84
2022/04/11 13:36:47;;;;;;;3.10;2.57;;;;;;;;;;7384618;19;20404;-84
2022/04/11 13:39:22;;;;;;;3.07;2.50;;;;;;;;;;7383175;19;20418;-83
2022/04/11 13:41:54;;;;;;;2.93;2.67;;;;;;;;;;7380464;19;20419;-79
2022/04/11 13:44:29;;;;;;;3.33;2.50;;;;;;;;;;7380186;19;20736;-79
2022/04/11 13:46:58;;;;;;;3.50;2.90;;;;;;;;;;7381071;19;20376;-80
2022/04/11 13:49:32;;;;;;;4.07;3.30;;;;;;;;;;7379366;19;20398;-79
2022/04/11 13:52:05;;;;;;;4.97;2.60;;;;;;;;;;7379882;19;20822;-78
2022/04/11 13:54:38;;;;;;;3.50;3.20;;;;;;;;;;7379890;19;21024;-79
2022/04/11 13:57:10;;;;;;;3.47;2.93;;;;;;;;;;7379282;19;20987;-79
2022/04/11 13:59:40;;;;;;;4.50;2.97;;;;;;;;;;7379489;19;20796;-79
2022/04/11 14:02:12;;;;;;;3.27;2.60;;;;;;;;;;7380719;19;20495;-79
2022/04/11 14:04:41;;;;;;;3.70;2.73;;;;;;;;;;7379868;19;20841;-79
2022/04/11 14:07:11;;;;;;;4.30;3.60;;;;;;;;;;7381545;19;20421;-79
2022/04/11 14:09:40;;;;;;;3.60;3.17;;;;;;;;;;7376473;19;20407;-78
2022/04/11 14:12:15;;;;;;;3.10;2.80;;;;;;;;;;7379483;19;20426;-78
2022/04/11 14:14:44;;;;;;;7.33;3.90;;;;;;;;;;7378897;19;20417;-78
2022/04/11 14:17:16;;;;;;;5.67;4.47;;;;;;;;;;7376228;19;20416;-79
2022/04/11 14:19:46;;;;;;;4.07;3.43;;;;;;;;;;7377752;19;20396;-79
2022/04/11 14:22:16;;;;;;;3.17;2.87;;;;;;;;;;7378272;19;20447;-79
2022/04/11 14:24:50;;;;;;;3.63;2.97;;;;;;;;;;7377690;19;20415;-79
2022/04/11 14:27:28;;;;;;;3.57;3.20;;;;;;;;;;7376743;19;20406;-79
2022/04/11 14:29:57;;;;;;;2.80;2.60;;;;;;;;;;7374803;19;20529;-78
2022/04/11 14:32:29;;;;;;;4.00;3.00;;;;;;;;;;7378747;19;20420;-78
2022/04/11 14:35:01;;;;;;;1753.73;238.77;;;;;;;;;;7377303;19;20433;-78
2022/04/11 14:37:35;;;;;;;38.07;9.43;;;;;;;;;;7378943;19;20367;-78
2022/04/11 14:40:11;;;;;;;9.93;3.57;;;;;;;;;;7378458;19;20471;-78
2022/04/11 14:42:44;;;;;;;3.17;2.60;;;;;;;;;;7378559;19;20400;-78
2022/04/11 14:45:13;;;;;;;4.00;2.80;;;;;;;;;;7371116;19;20408;-78
2022/04/11 14:47:43;;;;;;;2.70;2.50;;;;;;;;;;7378906;19;20414;-79
2022/04/11 14:50:15;;;;;;;3.40;3.10;;;;;;;;;;7376025;19;20400;-83
2022/04/11 14:52:49;;;;;;;4.03;3.23;;;;;;;;;;7378378;19;20408;-82
2022/04/11 14:55:21;;;;;;;4.30;3.10;;;;;;;;;;7375898;19;20452;-82
2022/04/11 14:57:58;;;;;;;3.80;3.00;;;;;;;;;;7377427;19;20480;-81
2022/04/11 15:00:28;;;;;;;4.97;3.03;;;;;;;;;;7379014;19;20516;-80
2022/04/11 15:02:57;;;;;;;3.90;3.40;;;;;;;;;;7376413;19;20435;-83
2022/04/11 15:05:29;;;;;;;4.53;3.43;;;;;;;;;;7375329;19;20419;-83
2022/04/11 15:07:59;;;;;;;5.50;3.47;;;;;;;;;;7377182;19;20476;-83
2022/04/11 15:10:31;;;;;;;3.97;3.33;;;;;;;;;;7375554;19;20424;-83
2022/04/11 15:13:09;;;;;;;3.47;3.17;;;;;;;;;;7377132;19;20543;-81
2022/04/11 15:15:50;;;;;;;6.30;3.60;;;;;;;;;;7374836;19;20472;-83
2022/04/11 15:18:24;;;;;;;5.03;3.40;;;;;;;;;;7378955;19;20419;-80
2022/04/11 15:20:56;;;;;;;4.00;3.30;;;;;;;;;;7420024;19;20396;-78
2022/04/11 15:23:25;;;;;;;5.30;3.67;;;;;;;;;;7408861;19;20416;-81